createdAt,value
2022-09-22T00:01:33.170Z,99.90
2022-09-22T00:04:02.088Z,99.90
2022-09-22T00:06:39.142Z,99.90
2022-09-22T00:09:07.870Z,99.90
2022-09-22T00:11:36.878Z,99.90
2022-09-22T00:14:05.148Z,99.90
2022-09-22T00:16:37.318Z,99.90
2022-09-22T00:19:07.891Z,99.90
2022-09-22T00:21:35.134Z,99.90
2022-09-22T00:24:03.136Z,99.90
2022-09-22T00:26:31.175Z,99.90
2022-09-22T00:28:58.096Z,99.90
2022-09-22T00:31:25.693Z,99.90
2022-09-22T00:34:01.532Z,99.90
2022-09-22T00:36:28.394Z,99.90
2022-09-22T00:38:56.359Z,99.90
2022-09-22T00:41:25.091Z,99.90
2022-09-22T00:44:11.790Z,99.90
2022-09-22T00:46:40.134Z,99.90
2022-09-22T00:49:08.248Z,99.90
2022-09-22T00:51:36.348Z,99.90
2022-09-22T00:54:05.000Z,99.90
2022-09-22T00:56:39.827Z,99.90
2022-09-22T00:59:09.572Z,99.90
2022-09-22T01:01:36.888Z,99.90
2022-09-22T01:04:04.043Z,99.90
2022-09-22T01:06:31.044Z,99.90
2022-09-22T01:08:58.272Z,99.90
2022-09-22T01:11:25.167Z,99.90
2022-09-22T01:13:52.822Z,99.90
2022-09-22T01:16:19.523Z,99.90
2022-09-22T01:18:56.283Z,99.90
2022-09-22T01:21:52.300Z,99.90
2022-09-22T01:24:22.090Z,99.90
2022-09-22T01:26:58.007Z,99.90
2022-09-22T01:29:33.823Z,99.90
2022-09-22T01:32:08.841Z,99.90
2022-09-22T01:34:50.732Z,99.90
2022-09-22T01:37:22.993Z,99.90
2022-09-22T01:39:53.046Z,99.90
2022-09-22T01:42:30.093Z,99.90
2022-09-22T01:44:56.937Z,99.90
2022-09-22T01:47:53.380Z,99.90
2022-09-22T01:50:25.855Z,99.90
2022-09-22T01:52:54.707Z,99.90
2022-09-22T01:55:25.010Z,99.90
2022-09-22T01:57:55.632Z,99.90
2022-09-22T02:00:23.198Z,99.90
2022-09-22T02:02:50.559Z,99.90
2022-09-22T02:05:21.061Z,99.90
2022-09-22T02:07:49.986Z,99.90
2022-09-22T02:10:18.400Z,99.90
2022-09-22T02:12:45.621Z,99.90
2022-09-22T02:15:31.994Z,99.90
2022-09-22T02:18:01.485Z,99.90
2022-09-22T02:20:28.207Z,99.90
2022-09-22T02:22:54.769Z,99.90
2022-09-22T02:25:23.480Z,99.90
2022-09-22T02:27:50.879Z,99.90
2022-09-22T02:30:17.447Z,99.90
2022-09-22T02:32:46.168Z,99.90
2022-09-22T02:35:13.360Z,99.90
2022-09-22T02:37:40.305Z,99.90
2022-09-22T02:40:07.018Z,99.90
2022-09-22T02:42:38.306Z,99.90
2022-09-22T02:45:08.084Z,99.90
2022-09-22T02:47:34.672Z,99.90
2022-09-22T02:50:02.975Z,99.90
2022-09-22T02:52:29.700Z,99.90
2022-09-22T02:54:56.626Z,99.90
2022-09-22T02:57:23.264Z,99.90
2022-09-22T02:59:49.935Z,99.90
2022-09-22T03:02:16.530Z,99.90
2022-09-22T03:04:43.384Z,99.90
2022-09-22T03:07:10.268Z,99.90
2022-09-22T03:09:36.868Z,99.90
2022-09-22T03:12:03.516Z,99.90
2022-09-22T03:14:30.253Z,99.90
2022-09-22T03:16:57.193Z,99.90
2022-09-22T03:19:23.917Z,99.90
2022-09-22T03:21:50.528Z,99.90
2022-09-22T03:24:17.092Z,99.90
2022-09-22T03:26:43.764Z,99.90
2022-09-22T03:29:10.515Z,99.90
2022-09-22T03:31:37.439Z,99.90
2022-09-22T03:34:04.121Z,99.90
2022-09-22T03:36:30.773Z,99.90
2022-09-22T03:38:57.469Z,99.90
2022-09-22T03:41:24.456Z,99.90
2022-09-22T03:43:51.173Z,99.90
2022-09-22T03:46:18.148Z,99.90
2022-09-22T03:48:45.497Z,99.90
2022-09-22T03:51:12.334Z,99.90
2022-09-22T03:53:39.221Z,99.90
2022-09-22T03:56:13.044Z,99.90
2022-09-22T03:58:40.520Z,99.90
2022-09-22T04:01:08.591Z,99.90
2022-09-22T04:03:35.812Z,99.90
2022-09-22T04:06:03.180Z,99.90
2022-09-22T04:08:30.123Z,99.90
2022-09-22T04:10:57.697Z,99.90
2022-09-22T04:13:24.932Z,99.90
2022-09-22T04:15:51.684Z,99.90
2022-09-22T04:18:18.340Z,99.90
2022-09-22T04:20:45.306Z,99.90
2022-09-22T04:23:12.541Z,99.90
2022-09-22T04:25:39.673Z,99.90
2022-09-22T04:28:06.792Z,99.90
2022-09-22T04:30:33.991Z,99.90
2022-09-22T04:33:00.694Z,99.90
2022-09-22T04:35:28.457Z,99.90
2022-09-22T04:37:55.632Z,99.90
2022-09-22T04:40:24.132Z,99.90
2022-09-22T04:42:51.115Z,99.90
2022-09-22T04:45:18.800Z,99.90
2022-09-22T04:47:46.600Z,99.90
2022-09-22T04:50:13.856Z,99.90
2022-09-22T04:52:45.292Z,99.90
2022-09-22T04:55:12.919Z,99.90
2022-09-22T04:57:39.769Z,99.90
2022-09-22T05:00:06.693Z,99.90
2022-09-22T05:02:34.371Z,99.90
2022-09-22T05:05:02.215Z,99.90
2022-09-22T05:07:29.088Z,99.90
2022-09-22T05:09:55.632Z,99.90
2022-09-22T05:12:23.247Z,99.90
2022-09-22T05:14:49.784Z,99.90
2022-09-22T05:17:16.343Z,99.90
2022-09-22T05:19:42.891Z,99.90
2022-09-22T05:22:09.979Z,99.90
2022-09-22T05:24:36.548Z,99.90
2022-09-22T05:27:03.248Z,99.90
2022-09-22T05:29:30.325Z,99.90
2022-09-22T05:31:56.877Z,99.90
2022-09-22T05:34:23.492Z,99.90
2022-09-22T05:36:50.029Z,99.90
2022-09-22T05:39:16.604Z,99.90
2022-09-22T05:41:43.197Z,99.90
2022-09-22T05:44:09.724Z,99.90
2022-09-22T05:46:36.264Z,99.90
2022-09-22T05:49:02.934Z,99.90
2022-09-22T05:51:29.467Z,99.90
2022-09-22T05:53:56.059Z,99.90
2022-09-22T05:56:22.618Z,99.90
2022-09-22T05:58:49.151Z,99.90
2022-09-22T06:01:15.735Z,99.90
2022-09-22T06:03:42.460Z,99.90
2022-09-22T06:06:09.125Z,99.90
2022-09-22T06:08:35.740Z,99.90
2022-09-22T06:11:02.320Z,99.90
2022-09-22T06:13:29.929Z,99.90
2022-09-22T06:15:56.480Z,99.90
2022-09-22T06:18:26.113Z,99.90
2022-09-22T06:20:54.099Z,99.90
2022-09-22T06:23:20.639Z,99.90
2022-09-22T06:25:47.508Z,99.90
2022-09-22T06:28:17.294Z,99.90
2022-09-22T06:30:43.878Z,99.90
2022-09-22T06:33:11.176Z,99.90
2022-09-22T06:35:38.070Z,99.90
2022-09-22T06:38:06.219Z,99.90
2022-09-22T06:40:33.529Z,99.90
2022-09-22T06:43:07.464Z,99.90
2022-09-22T06:45:34.471Z,99.90
2022-09-22T06:48:02.746Z,99.90
2022-09-22T06:50:33.820Z,99.90
2022-09-22T06:53:05.052Z,99.90
2022-09-22T06:55:31.619Z,99.90
2022-09-22T06:57:58.956Z,99.90
2022-09-22T07:00:31.274Z,99.90
2022-09-22T07:03:05.078Z,99.90
2022-09-22T07:05:32.040Z,99.90
2022-09-22T07:07:58.600Z,99.90
2022-09-22T07:10:25.242Z,99.90
2022-09-22T07:12:51.842Z,99.90
2022-09-22T07:15:18.432Z,99.90
2022-09-22T07:17:45.448Z,99.90
2022-09-22T07:20:12.773Z,99.90
2022-09-22T07:22:39.320Z,99.90
2022-09-22T07:25:09.009Z,99.90
2022-09-22T07:27:35.571Z,99.90
2022-09-22T07:30:03.397Z,99.90
2022-09-22T07:32:34.812Z,99.90
2022-09-22T07:35:01.942Z,99.90
2022-09-22T07:37:33.072Z,99.90
2022-09-22T07:40:03.266Z,99.90
2022-09-22T07:42:29.894Z,99.90
2022-09-22T07:45:15.398Z,99.90
2022-09-22T07:48:03.854Z,99.90
2022-09-22T07:50:30.565Z,99.90
2022-09-22T07:52:57.098Z,99.90
2022-09-22T07:55:25.010Z,99.90
2022-09-22T07:58:00.547Z,99.90
2022-09-22T08:00:28.682Z,99.90
2022-09-22T08:02:55.899Z,95.70
2022-09-22T08:05:23.647Z,91.00
2022-09-22T08:07:50.723Z,83.70
2022-09-22T08:10:18.109Z,76.10
2022-09-22T08:12:44.830Z,72.00
2022-09-22T08:15:12.478Z,66.80
2022-09-22T08:17:40.127Z,65.90
2022-09-22T08:20:07.709Z,67.30
2022-09-22T08:22:34.422Z,64.00
2022-09-22T08:25:00.961Z,60.00
2022-09-22T08:27:27.552Z,59.30
2022-09-22T08:29:55.009Z,58.70
2022-09-22T08:32:21.622Z,57.10
2022-09-22T08:34:48.187Z,55.50
2022-09-22T08:37:14.847Z,56.80
2022-09-22T08:39:41.380Z,56.20
2022-09-22T08:42:22.039Z,54.50
2022-09-22T08:45:17.721Z,53.50
2022-09-22T08:48:06.293Z,53.00
2022-09-22T08:50:55.287Z,50.90
2022-09-22T08:53:23.323Z,50.60
2022-09-22T08:55:55.282Z,51.60
2022-09-22T08:58:27.992Z,51.30
2022-09-22T09:01:14.937Z,52.70
2022-09-22T09:03:54.860Z,53.10
2022-09-22T09:06:30.577Z,54.80
2022-09-22T09:11:29.172Z,55.40
2022-09-22T09:14:04.319Z,55.20
2022-09-22T09:16:49.412Z,53.10
2022-09-22T09:19:18.165Z,52.50
2022-09-22T09:21:48.720Z,52.70
2022-09-22T09:27:08.917Z,52.60
2022-09-22T09:29:41.580Z,50.80
2022-09-22T09:32:14.501Z,51.40
2022-09-22T09:34:42.758Z,51.80
2022-09-22T09:37:13.460Z,51.20
2022-09-22T09:39:41.083Z,50.00
2022-09-22T09:42:20.101Z,51.80
2022-09-22T09:44:51.845Z,52.80
2022-09-22T09:47:21.958Z,51.10
2022-09-22T09:49:52.743Z,50.90
2022-09-22T09:52:20.736Z,51.70
2022-09-22T09:54:47.504Z,50.30
2022-09-22T09:57:15.221Z,50.70
2022-09-22T10:00:01.694Z,50.50
2022-09-22T10:02:28.486Z,50.30
2022-09-22T10:05:02.624Z,51.00
2022-09-22T10:10:18.361Z,49.20
2022-09-22T10:12:44.917Z,49.00
2022-09-22T10:15:23.099Z,48.90
2022-09-22T10:17:49.644Z,49.80
2022-09-22T10:20:29.522Z,48.40
2022-09-22T10:22:56.375Z,47.90
2022-09-22T10:25:27.843Z,48.90
2022-09-22T10:28:00.941Z,48.00
2022-09-22T10:30:27.736Z,49.40
2022-09-22T10:33:14.530Z,50.30
2022-09-22T10:35:45.861Z,49.60
2022-09-22T10:38:18.262Z,49.20
2022-09-22T10:40:47.616Z,47.80
2022-09-22T10:43:30.174Z,47.80
2022-09-22T10:46:03.238Z,47.60
2022-09-22T10:48:37.305Z,48.60
2022-09-22T10:51:07.026Z,48.00
2022-09-22T10:53:39.514Z,46.00
2022-09-22T10:56:18.676Z,44.00
2022-09-22T10:58:52.349Z,44.40
2022-09-22T11:01:37.720Z,42.90
2022-09-22T11:04:30.168Z,42.90
2022-09-22T11:07:18.624Z,45.50
2022-09-22T11:10:12.853Z,45.90
2022-09-22T11:12:53.540Z,45.40
2022-09-22T11:15:34.026Z,47.70
2022-09-22T11:18:12.787Z,45.40
2022-09-22T11:20:39.345Z,45.10
2022-09-22T11:23:23.012Z,44.00
2022-09-22T11:26:14.391Z,44.20
2022-09-22T11:29:00.160Z,45.50
2022-09-22T11:31:38.896Z,45.60
2022-09-22T11:34:25.694Z,46.10
2022-09-22T11:37:25.583Z,46.30
2022-09-22T11:40:07.376Z,47.00
2022-09-22T11:42:43.268Z,46.70
2022-09-22T11:45:22.394Z,46.40
2022-09-22T11:47:59.747Z,45.30
2022-09-22T11:50:41.139Z,43.50
2022-09-22T11:53:07.739Z,43.20
2022-09-22T11:55:36.664Z,43.40
2022-09-22T11:58:08.241Z,44.10
2022-09-22T12:00:51.471Z,44.10
2022-09-22T12:03:23.177Z,42.10
2022-09-22T12:05:53.432Z,40.60
2022-09-22T12:08:24.133Z,41.70
2022-09-22T12:10:51.927Z,43.20
2022-09-22T12:13:20.700Z,43.80
2022-09-22T12:16:09.497Z,42.90
2022-09-22T12:18:39.193Z,43.50
2022-09-22T12:21:06.548Z,45.70
2022-09-22T12:23:37.581Z,44.60
2022-09-22T12:26:06.113Z,43.70
2022-09-22T12:28:37.629Z,45.00
2022-09-22T12:31:08.041Z,43.80
2022-09-22T12:33:36.139Z,44.30
2022-09-22T12:36:03.868Z,44.50
2022-09-22T12:38:31.468Z,43.90
2022-09-22T12:40:59.912Z,43.10
2022-09-22T12:43:26.920Z,42.70
2022-09-22T12:45:54.966Z,43.20
2022-09-22T12:48:28.009Z,42.20
2022-09-22T12:51:14.480Z,42.10
2022-09-22T12:53:43.739Z,42.40
2022-09-22T12:56:30.996Z,44.60
2022-09-22T12:58:57.607Z,45.10
2022-09-22T13:01:28.845Z,43.60
2022-09-22T13:04:04.744Z,42.40
2022-09-22T13:06:31.268Z,42.70
2022-09-22T13:08:57.787Z,43.40
2022-09-22T13:11:43.335Z,44.90
2022-09-22T13:14:42.612Z,46.30
2022-09-22T13:17:28.073Z,46.70
2022-09-22T13:19:55.910Z,48.00
2022-09-22T13:22:22.544Z,46.90
2022-09-22T13:24:49.136Z,46.70
2022-09-22T13:27:15.676Z,46.10
2022-09-22T13:29:56.715Z,46.90
2022-09-22T13:32:26.856Z,47.70
2022-09-22T13:34:53.798Z,47.80
2022-09-22T13:37:24.145Z,47.70
2022-09-22T13:39:52.053Z,48.30
2022-09-22T13:42:23.859Z,48.80
2022-09-22T13:44:55.674Z,47.70
2022-09-22T13:47:23.285Z,47.50
2022-09-22T13:49:53.072Z,48.40
2022-09-22T13:52:21.885Z,49.60
2022-09-22T13:54:51.586Z,49.90
2022-09-22T13:57:21.730Z,50.70
2022-09-22T13:59:48.688Z,51.60
2022-09-22T14:02:19.489Z,53.00
2022-09-22T14:04:50.797Z,54.40
2022-09-22T14:07:17.875Z,55.00
2022-09-22T14:09:44.813Z,55.50
2022-09-22T14:12:11.607Z,56.70
2022-09-22T14:14:40.115Z,56.50
2022-09-22T14:17:24.820Z,56.70
2022-09-22T14:20:00.190Z,57.10
2022-09-22T14:22:27.779Z,57.30
2022-09-22T14:24:55.508Z,57.30
2022-09-22T14:27:28.207Z,58.10
2022-09-22T14:29:55.495Z,58.50
2022-09-22T14:32:33.743Z,58.40
2022-09-22T14:35:02.675Z,58.00
2022-09-22T14:37:40.161Z,58.20
2022-09-22T14:40:17.128Z,58.60
2022-09-22T14:42:55.080Z,58.30
2022-09-22T14:45:21.910Z,58.70
2022-09-22T14:48:08.795Z,58.20
2022-09-22T14:50:38.480Z,58.20
2022-09-22T14:53:25.380Z,58.60
2022-09-22T14:55:53.417Z,58.80
2022-09-22T14:58:30.443Z,59.30
2022-09-22T15:01:15.538Z,59.00
2022-09-22T15:03:43.775Z,59.70
2022-09-22T15:06:14.119Z,58.80
2022-09-22T15:08:42.067Z,58.80
2022-09-22T15:11:09.088Z,59.50
2022-09-22T15:13:40.696Z,59.80
2022-09-22T15:16:27.302Z,59.80
2022-09-22T15:18:53.855Z,60.20
2022-09-22T15:21:28.935Z,59.80
2022-09-22T15:23:56.687Z,59.70
2022-09-22T15:26:27.193Z,59.00
2022-09-22T15:28:55.212Z,59.10
2022-09-22T15:31:28.410Z,59.60
2022-09-22T15:33:56.235Z,59.10
2022-09-22T15:36:23.327Z,58.80
2022-09-22T15:38:50.277Z,58.90
2022-09-22T15:41:17.217Z,59.20
2022-09-22T15:43:44.196Z,58.70
2022-09-22T15:46:28.076Z,58.90
2022-09-22T15:48:59.412Z,58.90
2022-09-22T15:51:26.942Z,59.30
2022-09-22T15:53:53.656Z,59.40
2022-09-22T15:56:20.681Z,60.00
2022-09-22T15:58:49.233Z,60.70
2022-09-22T16:01:17.639Z,62.60
2022-09-22T16:03:44.278Z,61.80
2022-09-22T16:06:12.838Z,62.70
2022-09-22T16:08:44.516Z,63.60
2022-09-22T16:11:15.388Z,62.50
2022-09-22T16:13:42.264Z,62.20
2022-09-22T16:16:10.362Z,63.10
2022-09-22T16:18:39.349Z,63.40
2022-09-22T16:21:07.051Z,62.60
2022-09-22T16:23:34.154Z,63.10
2022-09-22T16:26:00.700Z,63.00
2022-09-22T16:28:27.251Z,63.50
2022-09-22T16:30:53.816Z,64.70
2022-09-22T16:33:20.917Z,66.00
2022-09-22T16:35:47.997Z,66.00
2022-09-22T16:38:14.595Z,67.50
2022-09-22T16:40:41.243Z,67.00
2022-09-22T16:43:08.909Z,67.00
2022-09-22T16:45:54.014Z,67.60
2022-09-22T16:48:20.564Z,68.80
2022-09-22T16:50:47.097Z,69.30
2022-09-22T16:53:14.245Z,69.80
2022-09-22T16:55:47.688Z,70.50
2022-09-22T16:58:14.741Z,70.70
2022-09-22T17:00:41.647Z,71.20
2022-09-22T17:03:08.268Z,71.90
2022-09-22T17:05:37.920Z,71.60
2022-09-22T17:08:06.883Z,71.70
2022-09-22T17:10:35.508Z,71.70
2022-09-22T17:13:04.701Z,72.70
2022-09-22T17:15:35.882Z,74.10
2022-09-22T17:18:03.948Z,77.30
2022-09-22T17:20:30.533Z,78.90
2022-09-22T17:22:57.460Z,79.30
2022-09-22T17:25:27.830Z,78.50
2022-09-22T17:27:54.453Z,79.80
2022-09-22T17:30:21.372Z,83.80
2022-09-22T17:32:48.389Z,86.60
2022-09-22T17:35:15.090Z,89.40
2022-09-22T17:37:41.840Z,90.90
2022-09-22T17:40:08.804Z,92.10
2022-09-22T17:42:37.543Z,93.50
2022-09-22T17:45:07.230Z,93.70
2022-09-22T17:47:52.550Z,94.10
2022-09-22T17:50:37.557Z,93.70
2022-09-22T17:53:22.443Z,94.80
2022-09-22T17:55:49.005Z,95.90
2022-09-22T17:58:15.539Z,96.40
2022-09-22T18:00:42.103Z,97.10
2022-09-22T18:03:08.806Z,97.50
2022-09-22T18:05:38.734Z,98.20
2022-09-22T18:08:05.260Z,99.40
2022-09-22T18:10:34.923Z,99.90
2022-09-22T18:13:02.255Z,99.90
2022-09-22T18:15:29.204Z,99.90
2022-09-22T18:17:57.917Z,99.90
2022-09-22T18:20:25.561Z,99.90
2022-09-22T18:22:52.169Z,99.90
2022-09-22T18:25:19.535Z,99.90
2022-09-22T18:27:48.321Z,99.90
2022-09-22T18:30:16.365Z,99.90
2022-09-22T18:32:43.015Z,99.90
2022-09-22T18:35:09.641Z,99.90
2022-09-22T18:37:36.204Z,99.90
2022-09-22T18:40:03.278Z,99.90
2022-09-22T18:42:32.311Z,99.90
2022-09-22T18:44:58.905Z,99.90
2022-09-22T18:47:26.160Z,99.90
2022-09-22T18:49:52.780Z,99.90
2022-09-22T18:52:22.903Z,99.90
2022-09-22T18:54:51.787Z,99.90
2022-09-22T18:57:18.458Z,99.90
2022-09-22T18:59:45.001Z,99.90
2022-09-22T19:02:12.284Z,99.90
2022-09-22T19:04:39.287Z,99.90
2022-09-22T19:07:24.786Z,99.90
2022-09-22T19:09:52.841Z,99.90
2022-09-22T19:12:21.478Z,99.90
2022-09-22T19:14:54.484Z,99.90
2022-09-22T19:17:21.293Z,99.90
2022-09-22T19:19:48.989Z,99.90
2022-09-22T19:22:16.252Z,99.90
2022-09-22T19:24:44.743Z,99.90
2022-09-22T19:27:12.492Z,99.90
2022-09-22T19:29:39.456Z,99.90
2022-09-22T19:32:07.300Z,99.90
2022-09-22T19:34:36.145Z,99.90
2022-09-22T19:37:03.111Z,99.90
2022-09-22T19:39:32.079Z,99.90
2022-09-22T19:41:58.972Z,99.90
2022-09-22T19:44:27.088Z,99.90
2022-09-22T19:46:53.806Z,99.90
2022-09-22T19:49:21.817Z,99.90
2022-09-22T19:51:48.632Z,99.90
2022-09-22T19:54:15.256Z,99.90
2022-09-22T19:56:41.883Z,99.90
2022-09-22T19:59:08.491Z,99.90
2022-09-22T20:01:40.210Z,99.90
2022-09-22T20:04:09.812Z,99.90
2022-09-22T20:06:36.564Z,99.90
2022-09-22T20:09:04.588Z,99.90
2022-09-22T20:11:38.572Z,99.90
2022-09-22T20:14:22.039Z,99.90
2022-09-22T20:16:51.107Z,99.90
2022-09-22T20:19:18.412Z,99.90
2022-09-22T20:21:45.829Z,99.90
2022-09-22T20:24:13.739Z,99.90
2022-09-22T20:26:41.445Z,99.90
2022-09-22T20:29:09.428Z,99.90
2022-09-22T20:31:36.688Z,99.90
2022-09-22T20:34:05.506Z,99.90
2022-09-22T20:36:37.223Z,99.90
2022-09-22T20:39:05.636Z,99.90
2022-09-22T20:41:32.668Z,99.90
2022-09-22T20:43:59.698Z,99.90
2022-09-22T20:46:26.828Z,99.90
2022-09-22T20:48:56.599Z,99.90
2022-09-22T20:51:23.563Z,99.90
2022-09-22T20:53:50.308Z,99.90
2022-09-22T20:56:16.978Z,99.90
2022-09-22T20:58:44.796Z,99.90
2022-09-22T21:01:14.166Z,99.90
2022-09-22T21:03:41.016Z,99.90
2022-09-22T21:06:08.946Z,99.90
2022-09-22T21:08:57.992Z,99.90
2022-09-22T21:11:25.189Z,99.90
2022-09-22T21:13:53.909Z,99.90
2022-09-22T21:16:20.815Z,99.90
2022-09-22T21:18:50.898Z,99.90
2022-09-22T21:21:19.130Z,99.90
2022-09-22T21:23:48.651Z,99.90
2022-09-22T21:26:16.387Z,99.90
2022-09-22T21:28:43.588Z,99.90
2022-09-22T21:31:10.708Z,99.90
2022-09-22T21:33:37.724Z,99.90
2022-09-22T21:36:06.011Z,99.90
2022-09-22T21:38:32.776Z,99.90
2022-09-22T21:41:03.070Z,99.90
2022-09-22T21:43:29.710Z,99.90
2022-09-22T21:46:01.369Z,99.90
2022-09-22T21:48:31.672Z,99.90
2022-09-22T21:51:00.144Z,99.90
2022-09-22T21:53:27.104Z,99.90
2022-09-22T21:56:04.388Z,99.90
2022-09-22T21:58:32.803Z,99.90
2022-09-22T22:01:01.033Z,99.90
2022-09-22T22:03:30.689Z,99.90
2022-09-22T22:06:08.029Z,99.90
2022-09-22T22:08:40.537Z,99.90
2022-09-22T22:11:08.858Z,99.90
2022-09-22T22:13:36.370Z,99.90
2022-09-22T22:16:03.505Z,99.90
2022-09-22T22:18:30.488Z,99.90
2022-09-22T22:20:58.232Z,99.90
2022-09-22T22:23:28.734Z,99.90
2022-09-22T22:26:01.981Z,99.90
2022-09-22T22:28:29.515Z,99.90
2022-09-22T22:30:56.702Z,99.90
2022-09-22T22:33:23.957Z,99.90
2022-09-22T22:35:53.407Z,99.90
2022-09-22T22:38:23.411Z,99.90
2022-09-22T22:40:50.118Z,99.90
2022-09-22T22:43:17.799Z,99.90
2022-09-22T22:45:45.211Z,99.90
2022-09-22T22:48:12.655Z,99.90
2022-09-22T22:50:39.760Z,99.90
2022-09-22T22:53:08.883Z,99.90
2022-09-22T22:55:35.644Z,99.90
2022-09-22T22:58:03.153Z,99.90
2022-09-22T23:00:29.714Z,99.90
2022-09-22T23:02:57.540Z,99.90
2022-09-22T23:05:24.195Z,99.90
2022-09-22T23:07:52.075Z,99.90
2022-09-22T23:10:19.167Z,99.90
2022-09-22T23:12:46.744Z,99.90
2022-09-22T23:15:13.818Z,99.90
2022-09-22T23:17:40.725Z,99.90
2022-09-22T23:20:07.861Z,99.90
2022-09-22T23:22:37.572Z,99.90
2022-09-22T23:25:04.332Z,99.90
2022-09-22T23:27:31.290Z,99.90
2022-09-22T23:29:58.034Z,99.90
2022-09-22T23:32:25.850Z,99.90
2022-09-22T23:34:52.640Z,99.90
2022-09-22T23:37:20.350Z,99.90
2022-09-22T23:39:46.897Z,99.90
2022-09-22T23:42:13.631Z,99.90
2022-09-22T23:44:40.184Z,99.90
2022-09-22T23:47:08.044Z,99.90
2022-09-22T23:49:34.810Z,99.90
2022-09-22T23:52:01.783Z,99.90
2022-09-22T23:54:28.595Z,99.90
2022-09-22T23:56:55.514Z,99.90
2022-09-22T23:59:22.074Z,99.90
